Terminal Aerodrome Forecast
Issued by NWS Upton, NY

Home | Current Version | Previous Version | Text Only | Print | Product List | Glossary On
Versions: 1 2 3 4 5 6 7 8 9 10 11 12 13 14 15 16 17 18 19 20 21 22 23 24 25 26 27 28 29
000
FTUS41 KOKX 280547
TAFBDR
TAF
KBDR 280547Z 2806/2906 12004KT P6SM OVC080
     FM280900 16004KT P6SM OVC030
     FM281400 14005KT P6SM BKN035
     FM290000 13009KT P6SM BKN200
     FM290500 10008KT P6SM BKN070=

USA.gov is the U.S. government's official web portal to all federal, state and local government web resources and services.